createdAt,value
2018-12-18T00:00:20.076Z,3.83
2018-12-18T00:01:20.066Z,3.77
2018-12-18T00:02:20.058Z,3.74
2018-12-18T00:03:20.045Z,3.74
2018-12-18T00:04:20.034Z,3.76
2018-12-18T00:05:20.023Z,3.73
2018-12-18T00:06:20.012Z,3.70
2018-12-18T00:07:20.003Z,3.71
2018-12-18T00:08:19.992Z,3.70
2018-12-18T00:09:19.978Z,3.71
2018-12-18T00:10:19.971Z,3.70
2018-12-18T00:11:19.963Z,3.66
2018-12-18T00:12:19.949Z,3.63
2018-12-18T00:13:19.935Z,3.63
2018-12-18T00:14:20.027Z,3.63
2018-12-18T00:15:19.919Z,3.66
2018-12-18T00:16:19.905Z,3.67
2018-12-18T00:17:19.893Z,3.63
2018-12-18T00:18:19.881Z,3.61
2018-12-18T00:19:19.872Z,3.59
2018-12-18T00:20:19.858Z,3.61
2018-12-18T00:21:19.848Z,3.62
2018-12-18T00:22:19.839Z,3.66
2018-12-18T00:23:19.826Z,3.62
2018-12-18T00:24:19.819Z,3.59
2018-12-18T00:25:19.807Z,3.58
2018-12-18T00:26:19.796Z,3.62
2018-12-18T00:27:19.785Z,3.61
2018-12-18T00:28:19.773Z,3.55
2018-12-18T00:29:19.763Z,3.52
2018-12-18T00:30:19.754Z,3.48
2018-12-18T00:31:19.742Z,3.48
2018-12-18T00:32:19.730Z,3.48
2018-12-18T00:33:19.721Z,3.45
2018-12-18T00:34:19.710Z,3.44
2018-12-18T00:35:19.703Z,3.44
2018-12-18T00:36:19.689Z,3.43
2018-12-18T00:37:19.678Z,3.43
2018-12-18T00:38:19.669Z,3.43
2018-12-18T00:39:19.655Z,3.45
2018-12-18T00:40:19.644Z,3.43
2018-12-18T00:41:19.637Z,3.43
2018-12-18T00:42:19.622Z,3.44
2018-12-18T00:43:19.612Z,3.43
2018-12-18T00:44:19.603Z,3.40
2018-12-18T00:45:19.591Z,3.38
2018-12-18T00:46:19.581Z,3.35
2018-12-18T00:47:19.569Z,3.33
2018-12-18T00:48:19.560Z,3.33
2018-12-18T00:49:19.550Z,3.30
2018-12-18T00:50:19.536Z,3.30
2018-12-18T00:51:19.525Z,3.30
2018-12-18T00:52:19.514Z,3.30
2018-12-18T00:53:19.507Z,3.33
2018-12-18T00:54:19.495Z,3.31
2018-12-18T00:55:19.482Z,3.30
2018-12-18T00:56:19.473Z,3.30
2018-12-18T00:57:19.465Z,3.22
2018-12-18T00:58:19.450Z,3.20
2018-12-18T00:59:19.441Z,3.19
2018-12-18T01:00:19.429Z,3.15
2018-12-18T01:01:19.497Z,3.12
2018-12-18T01:02:19.408Z,3.08
2018-12-18T01:03:19.395Z,3.05
2018-12-18T01:04:19.390Z,3.05
2018-12-18T01:05:19.377Z,3.05
2018-12-18T01:06:19.365Z,3.05
2018-12-18T01:07:19.354Z,3.05
2018-12-18T01:08:19.347Z,3.10
2018-12-18T01:09:19.331Z,3.13
2018-12-18T01:10:19.322Z,3.13
2018-12-18T01:11:19.310Z,3.08
2018-12-18T01:12:19.301Z,3.02
2018-12-18T01:13:19.293Z,3.02
2018-12-18T01:14:19.277Z,3.02
2018-12-18T01:15:19.268Z,3.01
2018-12-18T01:16:19.256Z,2.99
2018-12-18T01:17:19.245Z,2.98
2018-12-18T01:18:19.236Z,2.95
2018-12-18T01:19:19.225Z,2.90
2018-12-18T01:20:19.214Z,2.90
2018-12-18T01:21:19.205Z,2.89
2018-12-18T01:22:19.194Z,2.83
2018-12-18T01:23:19.183Z,2.80
2018-12-18T01:24:19.171Z,2.74
2018-12-18T01:25:19.171Z,2.73
2018-12-18T01:26:19.152Z,2.69
2018-12-18T01:27:19.141Z,2.68
2018-12-18T01:28:19.128Z,2.64
2018-12-18T01:29:19.119Z,2.64
2018-12-18T01:30:19.109Z,2.62
2018-12-18T01:31:19.098Z,2.61
2018-12-18T01:32:19.087Z,2.58
2018-12-18T01:33:19.077Z,2.58
2018-12-18T01:34:19.066Z,2.61
2018-12-18T01:35:19.056Z,2.61
2018-12-18T01:36:19.044Z,2.55
2018-12-18T01:37:19.032Z,2.52
2018-12-18T01:38:19.024Z,2.52
2018-12-18T01:39:19.014Z,2.52
2018-12-18T01:40:19.004Z,2.50
2018-12-18T01:41:18.989Z,2.50
2018-12-18T01:42:18.979Z,2.50
2018-12-18T01:43:18.968Z,2.49
2018-12-18T01:44:19.057Z,2.52
2018-12-18T01:45:18.948Z,2.55
2018-12-18T01:46:18.936Z,2.57
2018-12-18T01:47:18.925Z,2.54
2018-12-18T01:48:18.917Z,2.55
2018-12-18T01:49:18.921Z,2.55
2018-12-18T01:50:18.914Z,2.54
2018-12-18T01:51:18.882Z,2.55
2018-12-18T01:52:18.874Z,2.57
2018-12-18T01:53:18.862Z,2.57
2018-12-18T01:54:18.852Z,2.55
2018-12-18T01:55:18.840Z,2.50
2018-12-18T01:56:18.830Z,2.47
2018-12-18T01:57:18.821Z,2.47
2018-12-18T01:58:18.809Z,2.47
2018-12-18T01:59:18.802Z,2.46
2018-12-18T02:00:18.785Z,2.39
2018-12-18T02:01:18.777Z,2.35
2018-12-18T02:02:18.764Z,2.31
2018-12-18T02:03:18.754Z,2.31
2018-12-18T02:04:18.745Z,2.29
2018-12-18T02:05:18.736Z,2.28
2018-12-18T02:06:18.725Z,2.26
2018-12-18T02:07:18.710Z,2.25
2018-12-18T02:08:18.719Z,2.24
2018-12-18T02:09:18.691Z,2.24
2018-12-18T02:10:18.679Z,2.19
2018-12-18T02:11:18.669Z,2.13
2018-12-18T02:12:18.658Z,2.13
2018-12-18T02:13:18.646Z,2.11
2018-12-18T02:14:18.636Z,2.17
2018-12-18T02:15:18.627Z,2.21
2018-12-18T02:16:18.615Z,2.19
2018-12-18T02:17:18.604Z,2.18
2018-12-18T02:18:18.593Z,2.19
2018-12-18T02:19:18.584Z,2.18
2018-12-18T02:20:18.571Z,2.17
2018-12-18T02:21:18.563Z,2.14
2018-12-18T02:22:18.614Z,2.14
2018-12-18T02:23:18.548Z,2.14
2018-12-18T02:24:18.528Z,2.14
2018-12-18T02:25:18.517Z,2.14
2018-12-18T02:26:18.508Z,2.14
2018-12-18T02:27:18.498Z,2.13
2018-12-18T02:28:18.486Z,2.10
2018-12-18T02:29:18.474Z,2.10
2018-12-18T02:30:18.464Z,2.10
2018-12-18T02:31:18.453Z,2.11
2018-12-18T02:32:18.443Z,2.08
2018-12-18T02:33:18.430Z,2.10
2018-12-18T02:34:18.420Z,2.10
2018-12-18T02:35:18.416Z,2.08
2018-12-18T02:36:18.401Z,2.08
2018-12-18T02:37:18.388Z,2.08
2018-12-18T02:38:18.380Z,2.07
2018-12-18T02:39:18.367Z,2.06
2018-12-18T02:40:18.360Z,2.06
2018-12-18T02:41:18.346Z,2.03
2018-12-18T02:42:18.335Z,2.01
2018-12-18T02:43:18.323Z,2.01
2018-12-18T02:44:18.313Z,2.01
2018-12-18T02:45:18.314Z,2.00
2018-12-18T02:46:18.293Z,1.99
2018-12-18T02:47:18.280Z,1.97
2018-12-18T02:48:18.272Z,1.97
2018-12-18T02:49:18.259Z,2.00
2018-12-18T02:50:18.257Z,2.01
2018-12-18T02:51:18.244Z,2.00
2018-12-18T02:52:18.227Z,2.00
2018-12-18T02:53:18.216Z,1.97
2018-12-18T02:54:18.209Z,1.93
2018-12-18T02:55:18.194Z,1.90
2018-12-18T02:56:18.184Z,1.90
2018-12-18T02:57:18.175Z,1.90
2018-12-18T02:58:18.167Z,1.92
2018-12-18T02:59:18.151Z,1.93
2018-12-18T03:00:18.143Z,1.93
2018-12-18T03:01:18.129Z,1.92
2018-12-18T03:02:18.121Z,1.90
2018-12-18T03:03:18.113Z,1.89
2018-12-18T03:04:21.647Z,1.88
2018-12-18T03:05:18.088Z,1.86
2018-12-18T03:06:18.079Z,1.85
2018-12-18T03:07:18.066Z,1.85
2018-12-18T03:08:18.056Z,1.83
2018-12-18T03:09:18.053Z,1.82
2018-12-18T03:10:18.036Z,1.79
2018-12-18T03:11:18.024Z,1.77
2018-12-18T03:12:18.014Z,1.75
2018-12-18T03:13:18.000Z,1.77
2018-12-18T03:14:17.993Z,1.77
2018-12-18T03:15:17.982Z,1.74
2018-12-18T03:16:17.974Z,1.71
2018-12-18T03:17:17.959Z,1.70
2018-12-18T03:18:17.953Z,1.68
2018-12-18T03:19:17.942Z,1.71
2018-12-18T03:20:17.930Z,1.70
2018-12-18T03:21:17.915Z,1.67
2018-12-18T03:22:17.907Z,1.63
2018-12-18T03:23:17.896Z,1.61
2018-12-18T03:24:17.885Z,1.60
2018-12-18T03:25:17.872Z,1.61
2018-12-18T03:26:17.865Z,1.61
2018-12-18T03:27:17.852Z,1.64
2018-12-18T03:28:17.844Z,1.63
2018-12-18T03:29:17.832Z,1.61
2018-12-18T03:30:17.824Z,1.61
2018-12-18T03:31:17.811Z,1.64
2018-12-18T03:32:17.812Z,1.63
2018-12-18T03:33:17.787Z,1.64
2018-12-18T03:34:17.778Z,1.61
2018-12-18T03:35:17.766Z,1.61
2018-12-18T03:36:17.754Z,1.57
2018-12-18T03:37:17.745Z,1.54
2018-12-18T03:38:17.733Z,1.50
2018-12-18T03:39:17.721Z,1.47
2018-12-18T03:40:17.715Z,1.47
2018-12-18T03:41:17.715Z,1.44
2018-12-18T03:42:17.695Z,1.42
2018-12-18T03:43:17.680Z,1.36
2018-12-18T03:44:17.669Z,1.36
2018-12-18T03:45:17.659Z,1.34
2018-12-18T03:46:17.648Z,1.35
2018-12-18T03:47:17.643Z,1.36
2018-12-18T03:48:17.625Z,1.42
2018-12-18T03:49:17.624Z,1.38
2018-12-18T03:50:17.605Z,1.39
2018-12-18T03:51:17.593Z,1.42
2018-12-18T03:52:17.585Z,1.42
2018-12-18T03:53:17.573Z,1.36
2018-12-18T03:54:17.560Z,1.38
2018-12-18T03:55:17.555Z,1.36
2018-12-18T03:56:17.538Z,1.36
2018-12-18T03:57:17.609Z,1.34
2018-12-18T03:58:17.516Z,1.31
2018-12-18T03:59:17.507Z,1.29
2018-12-18T04:00:17.498Z,1.31
2018-12-18T04:01:17.484Z,1.28
2018-12-18T04:02:17.478Z,1.26
2018-12-18T04:03:17.464Z,1.26
2018-12-18T04:04:17.451Z,1.28
2018-12-18T04:05:17.443Z,1.29
2018-12-18T04:06:17.436Z,1.31
2018-12-18T04:07:17.420Z,1.35
2018-12-18T04:08:17.408Z,1.31
2018-12-18T04:09:17.399Z,1.29
2018-12-18T04:10:17.397Z,1.28
2018-12-18T04:11:17.378Z,1.29
2018-12-18T04:12:17.373Z,1.23
2018-12-18T04:13:17.356Z,1.25
2018-12-18T04:14:17.347Z,1.25
2018-12-18T04:15:17.344Z,1.26
2018-12-18T04:16:17.326Z,1.25
2018-12-18T04:17:17.322Z,1.20
2018-12-18T04:18:17.307Z,1.23
2018-12-18T04:19:17.300Z,1.28
2018-12-18T04:20:17.279Z,1.29
2018-12-18T04:21:17.270Z,1.31
2018-12-18T04:22:17.263Z,1.32
2018-12-18T04:23:17.258Z,1.32
2018-12-18T04:24:17.246Z,1.29
2018-12-18T04:25:17.237Z,1.25
2018-12-18T04:26:17.216Z,1.20
2018-12-18T04:27:17.206Z,1.20
2018-12-18T04:28:17.196Z,1.20
2018-12-18T04:29:17.184Z,1.26
2018-12-18T04:30:17.175Z,1.25
2018-12-18T04:31:17.164Z,1.25
2018-12-18T04:32:17.155Z,1.23
2018-12-18T04:33:17.142Z,1.23
2018-12-18T04:34:17.131Z,1.23
2018-12-18T04:35:17.120Z,1.20
2018-12-18T04:36:17.112Z,1.23
2018-12-18T04:37:17.100Z,1.20
2018-12-18T04:38:17.096Z,1.19
2018-12-18T04:39:17.084Z,1.16
2018-12-18T04:40:17.109Z,1.13
2018-12-18T04:41:17.063Z,1.12
2018-12-18T04:42:17.050Z,1.15
2018-12-18T04:43:17.036Z,1.16
2018-12-18T04:44:17.025Z,1.16
2018-12-18T04:45:17.015Z,1.15
2018-12-18T04:46:17.001Z,1.15
2018-12-18T04:47:16.993Z,1.15
2018-12-18T04:48:16.981Z,1.16
2018-12-18T04:49:16.971Z,1.20
2018-12-18T04:50:16.960Z,1.23
2018-12-18T04:51:16.950Z,1.25
2018-12-18T04:52:16.940Z,1.25
2018-12-18T04:53:16.939Z,1.25
2018-12-18T04:54:16.917Z,1.20
2018-12-18T04:55:16.913Z,1.16
2018-12-18T04:56:16.895Z,1.15
2018-12-18T04:57:16.889Z,1.13
2018-12-18T04:58:16.877Z,1.16
2018-12-18T04:59:16.865Z,1.15
2018-12-18T05:00:16.854Z,1.16
2018-12-18T05:01:16.843Z,1.15
2018-12-18T05:02:16.833Z,1.17
2018-12-18T05:03:16.823Z,1.15
2018-12-18T05:04:16.810Z,1.16
2018-12-18T05:05:16.801Z,1.17
2018-12-18T05:06:16.796Z,1.17
2018-12-18T05:07:16.781Z,1.19
2018-12-18T05:08:16.786Z,1.16
2018-12-18T05:09:16.757Z,1.16
2018-12-18T05:10:16.745Z,1.13
2018-12-18T05:11:16.738Z,1.15
2018-12-18T05:12:16.729Z,1.13
2018-12-18T05:13:16.715Z,1.13
2018-12-18T05:14:16.704Z,1.16
2018-12-18T05:15:16.695Z,1.16
2018-12-18T05:16:16.682Z,1.13
2018-12-18T05:17:16.673Z,1.13
2018-12-18T05:18:16.664Z,1.12
2018-12-18T05:19:16.650Z,1.10
2018-12-18T05:20:16.642Z,1.09
2018-12-18T05:21:16.627Z,1.07
2018-12-18T05:22:16.619Z,1.01
2018-12-18T05:23:16.607Z,1.01
2018-12-18T05:24:16.599Z,0.95
2018-12-18T05:25:16.656Z,0.91
2018-12-18T05:26:16.576Z,0.94
2018-12-18T05:27:16.567Z,0.89
2018-12-18T05:28:16.554Z,0.87
2018-12-18T05:29:16.544Z,0.85
2018-12-18T05:30:16.537Z,0.83
2018-12-18T05:31:16.524Z,0.87
2018-12-18T05:32:16.513Z,0.87
2018-12-18T05:33:16.509Z,0.80
2018-12-18T05:34:16.491Z,0.77
2018-12-18T05:35:16.479Z,0.77
2018-12-18T05:36:16.470Z,0.77
2018-12-18T05:37:16.459Z,0.81
2018-12-18T05:38:16.446Z,0.85
2018-12-18T05:39:16.435Z,0.85
2018-12-18T05:40:16.425Z,0.83
2018-12-18T05:41:16.414Z,0.85
2018-12-18T05:42:16.405Z,0.87
2018-12-18T05:43:16.395Z,0.87
2018-12-18T05:44:16.384Z,0.85
2018-12-18T05:45:16.373Z,0.81
2018-12-18T05:46:16.361Z,0.81
2018-12-18T05:47:16.350Z,0.81
2018-12-18T05:48:16.339Z,0.79
2018-12-18T05:49:16.338Z,0.80
2018-12-18T05:50:16.323Z,0.85
2018-12-18T05:51:16.307Z,0.81
2018-12-18T05:52:16.295Z,0.80
2018-12-18T05:53:16.286Z,0.83
2018-12-18T05:54:16.274Z,0.77
2018-12-18T05:55:16.265Z,0.70
2018-12-18T05:56:16.256Z,0.66
2018-12-18T05:57:16.243Z,0.62
2018-12-18T05:58:16.234Z,0.63
2018-12-18T05:59:16.221Z,0.59
2018-12-18T06:00:16.212Z,0.58
2018-12-18T06:01:16.199Z,0.58
2018-12-18T06:02:16.194Z,0.56
2018-12-18T06:03:16.181Z,0.56
2018-12-18T06:04:16.168Z,0.59
2018-12-18T06:05:16.156Z,0.59
2018-12-18T06:06:16.152Z,0.67
2018-12-18T06:07:16.137Z,0.70
2018-12-18T06:08:16.124Z,0.66
2018-12-18T06:09:16.117Z,0.67
2018-12-18T06:10:16.102Z,0.67
2018-12-18T06:11:16.092Z,0.67
2018-12-18T06:12:16.081Z,0.70
2018-12-18T06:13:16.073Z,0.71
2018-12-18T06:14:16.059Z,0.73
2018-12-18T06:15:16.053Z,0.69
2018-12-18T06:16:16.040Z,0.66
2018-12-18T06:17:16.029Z,0.59
2018-12-18T06:18:16.019Z,0.58
2018-12-18T06:19:16.008Z,0.59
2018-12-18T06:20:15.999Z,0.61
2018-12-18T06:21:15.985Z,0.58
2018-12-18T06:22:15.976Z,0.56
2018-12-18T06:23:15.964Z,0.58
2018-12-18T06:24:16.024Z,0.58
2018-12-18T06:25:16.578Z,0.61
2018-12-18T06:26:15.932Z,0.61
2018-12-18T06:27:15.928Z,0.53
2018-12-18T06:28:15.913Z,0.49
2018-12-18T06:29:15.899Z,0.51
2018-12-18T06:30:15.887Z,0.56
2018-12-18T06:31:15.879Z,0.55
2018-12-18T06:32:15.868Z,0.58
2018-12-18T06:33:15.854Z,0.67
2018-12-18T06:34:15.848Z,0.70
2018-12-18T06:35:15.858Z,0.74
2018-12-18T06:36:15.825Z,0.73
2018-12-18T06:37:15.812Z,0.73
2018-12-18T06:38:15.802Z,0.76
2018-12-18T06:39:15.792Z,0.76
2018-12-18T06:40:15.784Z,0.73
2018-12-18T06:41:15.775Z,0.74
2018-12-18T06:42:15.762Z,0.73
2018-12-18T06:43:15.752Z,0.70
2018-12-18T06:44:15.738Z,0.66
2018-12-18T06:45:15.728Z,0.61
2018-12-18T06:46:15.721Z,0.61
2018-12-18T06:47:15.707Z,0.59
2018-12-18T06:48:15.698Z,0.61
2018-12-18T06:49:15.686Z,0.63
2018-12-18T06:50:15.678Z,0.62
2018-12-18T06:51:15.666Z,0.63
2018-12-18T06:52:15.653Z,0.63
2018-12-18T06:53:15.640Z,0.69
2018-12-18T06:54:15.634Z,0.69
2018-12-18T06:55:15.619Z,0.62
2018-12-18T06:56:15.611Z,0.61
2018-12-18T06:57:15.600Z,0.61
2018-12-18T06:58:15.590Z,0.56
2018-12-18T06:59:15.580Z,0.56
2018-12-18T07:00:15.572Z,0.56
2018-12-18T07:01:15.558Z,0.56
2018-12-18T07:02:15.547Z,0.58
2018-12-18T07:03:15.533Z,0.53
2018-12-18T07:04:15.535Z,0.51
2018-12-18T07:05:16.939Z,0.52
2018-12-18T07:06:15.505Z,0.55
2018-12-18T07:07:15.491Z,0.53
2018-12-18T07:08:15.482Z,0.53
2018-12-18T07:09:15.470Z,0.53
2018-12-18T07:10:15.459Z,0.51
2018-12-18T07:11:15.447Z,0.49
2018-12-18T07:12:15.441Z,0.44
2018-12-18T07:13:15.434Z,0.43
2018-12-18T07:14:15.417Z,0.41
2018-12-18T07:15:15.405Z,0.41
2018-12-18T07:16:15.393Z,0.38
2018-12-18T07:17:15.383Z,0.35
2018-12-18T07:18:15.373Z,0.33
2018-12-18T07:19:15.362Z,0.37
2018-12-18T07:20:15.351Z,0.37
2018-12-18T07:21:15.341Z,0.38
2018-12-18T07:22:15.333Z,0.41
2018-12-18T07:23:15.320Z,0.48
2018-12-18T07:24:15.310Z,0.49
2018-12-18T07:25:15.299Z,0.51
2018-12-18T07:26:15.286Z,0.53
2018-12-18T07:27:15.278Z,0.55
2018-12-18T07:28:15.263Z,0.56
2018-12-18T07:29:15.253Z,0.53
2018-12-18T07:30:15.245Z,0.56
2018-12-18T07:31:15.233Z,0.58
2018-12-18T07:32:15.224Z,0.58
2018-12-18T07:33:15.210Z,0.56
2018-12-18T07:34:15.200Z,0.53
2018-12-18T07:35:15.193Z,0.53
2018-12-18T07:36:15.182Z,0.58
2018-12-18T07:37:15.168Z,0.66
2018-12-18T07:38:15.158Z,0.66
2018-12-18T07:39:15.145Z,0.66
2018-12-18T07:40:15.140Z,0.67
2018-12-18T07:41:15.124Z,0.69
2018-12-18T07:42:15.114Z,0.69
2018-12-18T07:43:15.106Z,0.70
2018-12-18T07:44:15.097Z,0.73
2018-12-18T07:45:15.082Z,0.74
2018-12-18T07:46:15.071Z,0.80
2018-12-18T07:47:15.063Z,0.85
2018-12-18T07:48:15.053Z,0.88
2018-12-18T07:49:15.043Z,0.91
2018-12-18T07:50:15.027Z,0.91
2018-12-18T07:51:15.020Z,0.83
2018-12-18T07:52:15.012Z,0.83
2018-12-18T07:53:15.007Z,0.79
2018-12-18T07:54:15.003Z,0.79
2018-12-18T07:55:14.989Z,0.79
2018-12-18T07:56:14.976Z,0.83
2018-12-18T07:57:14.965Z,0.80
2018-12-18T07:58:14.963Z,0.81
2018-12-18T07:59:14.929Z,0.88
2018-12-18T08:00:14.922Z,0.95
2018-12-18T08:01:14.909Z,0.94
2018-12-18T08:02:14.917Z,0.91
2018-12-18T08:03:14.890Z,0.87
2018-12-18T08:04:14.894Z,0.80
2018-12-18T08:05:14.976Z,0.76
2018-12-18T08:06:14.895Z,0.76
2018-12-18T08:07:14.855Z,0.80
2018-12-18T08:08:14.888Z,0.85
2018-12-18T08:09:14.823Z,0.89
2018-12-18T08:10:14.812Z,0.91
2018-12-18T08:11:14.803Z,0.95
2018-12-18T08:12:14.792Z,0.99
2018-12-18T08:13:14.780Z,1.05
2018-12-18T08:14:14.777Z,1.03
2018-12-18T08:15:14.759Z,1.06
2018-12-18T08:16:14.749Z,1.06
2018-12-18T08:17:14.738Z,1.12
2018-12-18T08:18:14.728Z,1.09
2018-12-18T08:19:14.720Z,1.09
2018-12-18T08:20:14.726Z,1.07
2018-12-18T08:21:14.695Z,1.12
2018-12-18T08:22:14.682Z,1.15
2018-12-18T08:23:14.673Z,1.13
2018-12-18T08:24:14.660Z,1.13
2018-12-18T08:25:14.650Z,1.12
2018-12-18T08:26:14.639Z,1.13
2018-12-18T08:27:14.628Z,1.13
2018-12-18T08:28:14.616Z,1.19
2018-12-18T08:29:14.611Z,1.19
2018-12-18T08:30:14.601Z,1.19
2018-12-18T08:31:14.584Z,1.23
2018-12-18T08:32:14.578Z,1.31
2018-12-18T08:33:14.563Z,1.38
2018-12-18T08:34:14.555Z,1.43
2018-12-18T08:35:14.545Z,1.49
2018-12-18T08:36:14.529Z,1.50
2018-12-18T08:37:14.526Z,1.53
2018-12-18T08:38:14.510Z,1.53
2018-12-18T08:39:14.497Z,1.60
2018-12-18T08:40:14.497Z,1.60
2018-12-18T08:41:14.477Z,1.53
2018-12-18T08:42:14.465Z,1.50
2018-12-18T08:43:14.453Z,1.47
2018-12-18T08:44:14.445Z,1.43
2018-12-18T08:45:14.432Z,1.47
2018-12-18T08:46:14.422Z,1.50
2018-12-18T08:47:14.409Z,1.56
2018-12-18T08:48:14.399Z,1.60
2018-12-18T08:49:14.390Z,1.65
2018-12-18T08:50:14.379Z,1.70
2018-12-18T08:51:14.368Z,1.71
2018-12-18T08:52:14.360Z,1.74
2018-12-18T08:53:14.351Z,1.75
2018-12-18T08:54:14.333Z,1.81
2018-12-18T08:55:14.323Z,1.83
2018-12-18T08:56:14.310Z,1.83
2018-12-18T08:57:14.302Z,1.82
2018-12-18T08:58:14.291Z,1.85
2018-12-18T08:59:14.283Z,1.89
2018-12-18T09:00:14.267Z,1.92
2018-12-18T09:01:14.259Z,1.95
2018-12-18T09:02:14.246Z,1.97
2018-12-18T09:03:14.235Z,1.97
2018-12-18T09:04:14.227Z,1.97
2018-12-18T09:05:14.220Z,1.99
2018-12-18T09:06:14.206Z,2.00
2018-12-18T09:07:14.194Z,2.01
2018-12-18T09:08:14.183Z,2.01
2018-12-18T09:09:14.173Z,2.03
2018-12-18T09:10:14.160Z,2.03
2018-12-18T09:11:14.149Z,2.03
2018-12-18T09:12:14.140Z,2.06
2018-12-18T09:13:14.129Z,2.13
2018-12-18T09:14:14.118Z,2.19
2018-12-18T09:15:14.106Z,2.24
2018-12-18T09:16:14.095Z,2.31
2018-12-18T09:17:14.087Z,2.32
2018-12-18T09:18:14.073Z,2.31
2018-12-18T09:19:14.067Z,2.29
2018-12-18T09:20:14.051Z,2.26
2018-12-18T09:21:14.039Z,2.26
2018-12-18T09:22:14.031Z,2.22
2018-12-18T09:23:14.024Z,2.22
2018-12-18T09:24:14.007Z,2.26
2018-12-18T09:25:13.999Z,2.26
2018-12-18T09:26:13.991Z,2.31
2018-12-18T09:27:13.979Z,2.36
2018-12-18T09:28:13.965Z,2.35
2018-12-18T09:29:13.959Z,2.37
2018-12-18T09:30:13.945Z,2.49
2018-12-18T09:31:13.935Z,2.55
2018-12-18T09:32:13.923Z,2.61
2018-12-18T09:33:13.913Z,2.64
2018-12-18T09:34:13.905Z,2.65
2018-12-18T09:35:13.892Z,2.71
2018-12-18T09:36:13.881Z,2.68
2018-12-18T09:37:13.874Z,2.65
2018-12-18T09:38:13.859Z,2.71
2018-12-18T09:39:13.851Z,2.71
2018-12-18T09:40:13.839Z,2.73
2018-12-18T09:41:13.827Z,2.73
2018-12-18T09:42:13.815Z,2.76
2018-12-18T09:43:13.808Z,2.73
2018-12-18T09:44:13.797Z,2.73
2018-12-18T09:45:13.783Z,2.77
2018-12-18T09:46:13.772Z,2.81
2018-12-18T09:47:13.768Z,2.86
2018-12-18T09:48:13.752Z,2.89
2018-12-18T09:49:13.743Z,2.94
2018-12-18T09:50:13.735Z,2.95
2018-12-18T09:51:13.719Z,2.99
2018-12-18T09:52:13.708Z,3.05
2018-12-18T09:53:13.700Z,3.13
2018-12-18T09:54:13.691Z,3.12
2018-12-18T09:55:13.678Z,3.12
2018-12-18T09:56:13.668Z,3.16
2018-12-18T09:57:13.654Z,3.16
2018-12-18T09:58:13.646Z,3.15
2018-12-18T09:59:13.634Z,3.19
2018-12-18T10:00:13.624Z,3.20
2018-12-18T10:01:13.615Z,3.25
2018-12-18T10:02:13.601Z,3.23
2018-12-18T10:03:13.591Z,3.25
2018-12-18T10:04:13.580Z,3.23
2018-12-18T10:05:13.569Z,3.30
2018-12-18T10:06:13.559Z,3.37
2018-12-18T10:07:13.547Z,3.41
2018-12-18T10:08:13.538Z,3.44
2018-12-18T10:09:13.527Z,3.49
2018-12-18T10:10:13.519Z,3.53
2018-12-18T10:11:13.505Z,3.53
2018-12-18T10:12:13.494Z,3.53
2018-12-18T10:13:13.482Z,3.56
2018-12-18T10:14:13.472Z,3.58
2018-12-18T10:15:13.464Z,3.58
2018-12-18T10:16:13.454Z,3.58
2018-12-18T10:17:13.442Z,3.58
2018-12-18T10:18:13.431Z,3.63
2018-12-18T10:19:13.420Z,3.71
2018-12-18T10:20:13.409Z,3.80
2018-12-18T10:21:13.404Z,3.81
2018-12-18T10:22:13.388Z,3.88
2018-12-18T10:23:13.377Z,3.89
2018-12-18T10:24:13.364Z,3.92
2018-12-18T10:25:13.361Z,3.92
2018-12-18T10:26:13.347Z,3.81
2018-12-18T10:27:13.332Z,3.83
2018-12-18T10:28:13.376Z,3.83
2018-12-18T10:29:13.309Z,3.87
2018-12-18T10:30:13.300Z,3.83
2018-12-18T10:31:13.288Z,3.89
2018-12-18T10:32:13.277Z,4.01
2018-12-18T10:33:13.268Z,4.16
2018-12-18T10:34:13.259Z,4.32
2018-12-18T10:35:13.252Z,4.47
2018-12-18T10:36:13.236Z,4.59
2018-12-18T10:37:13.226Z,4.68
2018-12-18T10:38:13.212Z,4.79
2018-12-18T10:39:13.227Z,4.83
2018-12-18T10:40:13.192Z,4.87
2018-12-18T10:41:13.180Z,4.93
2018-12-18T10:42:13.175Z,5.01
2018-12-18T10:43:13.161Z,5.08
2018-12-18T10:44:13.147Z,5.14
2018-12-18T10:45:13.876Z,5.16
2018-12-18T10:46:13.124Z,5.11
2018-12-18T10:47:13.120Z,5.16
2018-12-18T10:48:13.103Z,5.25
2018-12-18T10:49:13.094Z,5.34
2018-12-18T10:50:13.082Z,5.31
2018-12-18T10:51:13.074Z,5.26
2018-12-18T10:52:13.060Z,5.22
2018-12-18T10:53:13.051Z,5.19
2018-12-18T10:54:13.037Z,5.19
2018-12-18T10:55:13.026Z,5.21
2018-12-18T10:56:13.017Z,5.19
2018-12-18T10:57:13.006Z,5.23
2018-12-18T10:58:12.996Z,5.29
2018-12-18T10:59:12.986Z,5.36
2018-12-18T11:00:12.973Z,5.41
2018-12-18T11:01:12.962Z,5.47
2018-12-18T11:02:12.955Z,5.52
2018-12-18T11:03:12.940Z,5.59
2018-12-18T11:04:12.930Z,5.60
2018-12-18T11:05:12.917Z,5.63
2018-12-18T11:06:12.906Z,5.66
2018-12-18T11:07:12.897Z,5.69
2018-12-18T11:08:12.887Z,5.75
2018-12-18T11:09:12.879Z,5.67
2018-12-18T11:10:12.862Z,5.67
2018-12-18T11:11:12.853Z,5.74
2018-12-18T11:12:12.844Z,5.80
2018-12-18T11:13:12.830Z,5.84
2018-12-18T11:14:12.826Z,5.90
2018-12-18T11:15:12.809Z,5.95
2018-12-18T11:16:12.799Z,5.98
2018-12-18T11:17:12.789Z,6.06
2018-12-18T11:18:12.776Z,6.19
2018-12-18T11:19:12.765Z,6.29
2018-12-18T11:20:12.755Z,6.37
2018-12-18T11:21:12.744Z,6.44
2018-12-18T11:22:12.732Z,6.44
2018-12-18T11:23:12.722Z,6.42
2018-12-18T11:24:12.712Z,6.44
2018-12-18T11:25:12.701Z,6.44
2018-12-18T11:26:12.686Z,6.44
2018-12-18T11:27:12.679Z,6.44
2018-12-18T11:28:12.669Z,6.52
2018-12-18T11:29:12.668Z,6.49
2018-12-18T11:30:12.644Z,6.49
2018-12-18T11:31:12.634Z,6.56
2018-12-18T11:32:12.622Z,6.60
2018-12-18T11:33:12.618Z,6.62
2018-12-18T11:34:12.603Z,6.67
2018-12-18T11:35:12.588Z,6.72
2018-12-18T11:36:16.496Z,6.75
2018-12-18T11:37:12.589Z,6.74
2018-12-18T11:38:12.557Z,6.63
2018-12-18T11:39:12.547Z,6.64
2018-12-18T11:40:12.536Z,6.71
2018-12-18T11:41:12.525Z,6.80
2018-12-18T11:42:12.511Z,6.92
2018-12-18T11:43:12.506Z,6.99
2018-12-18T11:44:12.496Z,6.97
2018-12-18T11:45:12.481Z,7.00
2018-12-18T11:46:12.467Z,7.04
2018-12-18T11:47:12.456Z,7.04
2018-12-18T11:48:12.445Z,7.11
2018-12-18T11:49:12.436Z,7.18
2018-12-18T11:50:12.428Z,7.18
2018-12-18T11:51:12.414Z,7.11
2018-12-18T11:52:12.402Z,7.09
2018-12-18T11:53:12.390Z,7.12
2018-12-18T11:54:12.380Z,7.07
2018-12-18T11:55:12.371Z,7.12
2018-12-18T11:56:12.359Z,7.12
2018-12-18T11:57:12.347Z,7.07
2018-12-18T11:58:12.342Z,7.04
2018-12-18T11:59:12.329Z,6.89
2018-12-18T12:00:12.315Z,6.85
2018-12-18T12:01:12.303Z,6.89
2018-12-18T12:02:12.295Z,6.99
2018-12-18T12:03:12.282Z,6.99
2018-12-18T12:04:12.272Z,6.89
2018-12-18T12:05:12.261Z,6.81
2018-12-18T12:06:12.248Z,6.80
2018-12-18T12:07:12.238Z,6.75
2018-12-18T12:08:12.234Z,6.67
2018-12-18T12:09:12.217Z,6.64
2018-12-18T12:10:12.204Z,6.54
2018-12-18T12:11:12.194Z,6.35
2018-12-18T12:12:12.181Z,6.34
2018-12-18T12:13:12.174Z,6.34
2018-12-18T12:14:12.162Z,6.39
2018-12-18T12:15:12.147Z,6.39
2018-12-18T12:16:12.140Z,6.39
2018-12-18T12:17:12.125Z,6.35
2018-12-18T12:18:12.118Z,6.39
2018-12-18T12:19:12.105Z,6.42
2018-12-18T12:20:12.091Z,6.44
2018-12-18T12:21:12.133Z,6.44
2018-12-18T12:22:12.071Z,6.37
2018-12-18T12:23:12.059Z,6.37
2018-12-18T12:24:12.050Z,6.34
2018-12-18T12:25:12.037Z,6.34
2018-12-18T12:26:12.028Z,6.34
2018-12-18T12:27:12.018Z,6.39
2018-12-18T12:28:12.004Z,6.34
2018-12-18T12:29:11.996Z,6.26
2018-12-18T12:30:11.982Z,6.23
2018-12-18T12:31:12.623Z,6.17
2018-12-18T12:32:11.961Z,6.13
2018-12-18T12:33:11.954Z,6.05
2018-12-18T12:34:11.946Z,6.06
2018-12-18T12:35:11.925Z,6.06
2018-12-18T12:36:11.916Z,6.06
2018-12-18T12:37:11.905Z,6.08
2018-12-18T12:38:11.893Z,6.02
2018-12-18T12:39:11.883Z,6.01
2018-12-18T12:40:11.872Z,6.06
2018-12-18T12:41:11.857Z,6.13
2018-12-18T12:42:11.848Z,6.17
2018-12-18T12:43:11.837Z,6.21
2018-12-18T12:44:11.826Z,6.21
2018-12-18T12:45:11.816Z,6.20
2018-12-18T12:46:11.802Z,6.10
2018-12-18T12:47:11.793Z,6.05
2018-12-18T12:48:11.782Z,6.06
2018-12-18T12:49:11.778Z,6.01
2018-12-18T12:50:11.761Z,6.02
2018-12-18T12:51:11.770Z,6.06
2018-12-18T12:52:11.736Z,6.02
2018-12-18T12:53:11.727Z,6.02
2018-12-18T12:54:11.718Z,5.98
2018-12-18T12:55:11.706Z,5.99
2018-12-18T12:56:11.696Z,6.02
2018-12-18T12:57:11.683Z,6.08
2018-12-18T12:58:11.669Z,6.11
2018-12-18T12:59:11.661Z,6.06
2018-12-18T13:00:11.648Z,6.03
2018-12-18T13:01:11.639Z,6.05
2018-12-18T13:02:11.626Z,6.10
2018-12-18T13:03:11.616Z,6.13
2018-12-18T13:04:11.606Z,6.16
2018-12-18T13:05:11.593Z,6.17
2018-12-18T13:06:11.583Z,6.13
2018-12-18T13:07:11.572Z,6.13
2018-12-18T13:08:11.561Z,6.06
2018-12-18T13:09:11.550Z,6.06
2018-12-18T13:10:11.541Z,6.03
2018-12-18T13:11:11.532Z,6.08
2018-12-18T13:12:11.519Z,6.21
2018-12-18T13:13:11.506Z,6.27
2018-12-18T13:14:11.496Z,6.27
2018-12-18T13:15:11.483Z,6.26
2018-12-18T13:16:11.472Z,6.19
2018-12-18T13:17:11.462Z,6.13
2018-12-18T13:18:11.451Z,6.13